Sao Tome International Airport Sao Tome ST
ICAO: FPST
IATA: TMS
Category: Medium
Scheduled Services: Yes

Elevation: 33 ft
TransAlt. 4000 ft.

Airport Communications:
TWR:118.9

FPST Zoom In..

If you have problems with the map follow the link
https://www.worldairports.se/pages/airport.php?
ICAO=FPST

Runways:

(A) RW 11 length 7087 ft width 148 ft
---- / hdg 106

(B) RW 29 length 7087 ft width 148 ft
---- / hdg 286

Location; FPST
Day. 21 / Time. 11.00 Zulu
* QNH: 1012
* Temperature: 31° c. 87.8°f.
* Wind from: 130° Speed 10 kn.
Dewpoint: 26° c.
Visibility: 10 km or more.
Clouds: Few 2300 ft.
No significant changes expected in the near future.

FPST 211100Z 13010KT 9999 FEW023 31/26 Q1012 NOSIG


Wind From 130°
Speed 10 kn.

 
 
jpsmedia worldairports.se 2020   terms of use